Time;durP1;ratioP1;P1;durP2;ratioP2;P2;SDS_P1;SDS_P2;PMS_P1;PMS_P2;Temp;Humidity;BMP_temperature;BMP_pressure;BME280_temperature;BME280_humidity;BME280_pressure;Samples;Min_cycle;Max_cycle;Signal;HPM_P1;HPM_P2
2023/12/07 00:00:43;;;;;;;;;;;3.20;1.00;;;;;;5014858;28;19944;-73
2023/12/07 00:03:12;;;;;;;;;;;3.10;1.00;;;;;;5025569;28;19909;-73
2023/12/07 00:05:37;;;;;;;;;;;3.00;1.00;;;;;;5013402;28;19945;-73
2023/12/07 00:08:03;;;;;;;;;;;3.10;1.00;;;;;;5014698;28;19917;-77
2023/12/07 00:10:36;;;;;;;;;;;3.00;1.00;;;;;;5017104;28;19917;-77
2023/12/07 00:13:06;;;;;;;;;;;3.00;1.00;;;;;;5016404;28;19909;-77
2023/12/07 00:15:31;;;;;;;;;;;2.90;1.00;;;;;;5016794;28;19913;-77
2023/12/07 00:17:57;;;;;;;;;;;2.90;1.00;;;;;;5014596;28;19914;-77
2023/12/07 00:23:32;;;;;;;;;;;2.90;1.00;;;;;;5012441;28;19993;-76
2023/12/07 00:26:12;;;;;;;;;;;3.00;1.00;;;;;;5014817;28;19949;-77
2023/12/07 00:31:22;;;;;;;;;;;3.00;1.00;;;;;;5012987;28;19920;-77
2023/12/07 00:33:54;;;;;;;;;;;2.90;1.00;;;;;;5014514;28;19910;-78
2023/12/07 00:36:30;;;;;;;;;;;2.90;1.00;;;;;;5014580;28;19910;-77
2023/12/07 00:39:00;;;;;;;;;;;2.80;1.00;;;;;;5013412;28;20333;-77
2023/12/07 00:42:00;;;;;;;;;;;2.70;1.00;;;;;;5014100;28;20404;-78
2023/12/07 00:47:28;;;;;;;;;;;2.50;1.00;;;;;;5014224;28;19941;-77
2023/12/07 00:49:54;;;;;;;;;;;2.40;1.00;;;;;;5014873;28;19921;-77
2023/12/07 00:52:24;;;;;;;;;;;2.30;1.00;;;;;;5014723;28;19921;-73
2023/12/07 00:54:49;;;;;;;;;;;2.20;1.00;;;;;;5017228;28;19909;-73
2023/12/07 00:57:15;;;;;;;;;;;2.10;1.00;;;;;;5017177;28;19936;-73
2023/12/07 00:59:41;;;;;;;;;;;2.00;1.00;;;;;;5014197;28;19959;-73
2023/12/07 01:02:06;;;;;;;;;;;2.00;1.00;;;;;;5016768;28;19909;-73
2023/12/07 01:04:32;;;;;;;;;;;1.80;1.00;;;;;;5014226;28;19929;-73
2023/12/07 01:07:06;;;;;;;;;;;1.70;1.00;;;;;;5013566;28;19909;-74
2023/12/07 01:09:33;;;;;;;;;;;1.60;1.00;;;;;;5014218;28;19917;-73
2023/12/07 01:11:58;;;;;;;;;;;1.60;1.00;;;;;;5014137;28;19925;-73
2023/12/07 01:14:24;;;;;;;;;;;1.50;1.00;;;;;;5014205;28;19914;-73
2023/12/07 01:16:50;;;;;;;;;;;1.50;1.00;;;;;;5013943;28;19909;-73
2023/12/07 01:19:16;;;;;;;;;;;1.40;1.00;;;;;;5023869;28;19916;-73
2023/12/07 01:21:48;;;;;;;;;;;1.30;1.00;;;;;;5029106;28;19909;-73
2023/12/07 01:24:24;;;;;;;;;;;1.20;1.00;;;;;;5014103;28;19924;-73
2023/12/07 01:26:54;;;;;;;;;;;1.10;1.00;;;;;;5027154;28;19959;-73
2023/12/07 01:29:24;;;;;;;;;;;1.00;1.00;;;;;;5013764;28;20008;-73
2023/12/07 01:31:49;;;;;;;;;;;1.00;1.00;;;;;;5020417;28;20345;-74
2023/12/07 01:34:15;;;;;;;;;;;;;;;;;;5022007;28;19910;-73
2023/12/07 01:36:42;;;;;;;;;;;1.00;1.00;;;;;;5015827;28;19932;-73
2023/12/07 01:39:11;;;;;;;;;;;;;;;;;;5011635;28;19919;-73
2023/12/07 01:41:36;;;;;;;;;;;0.90;1.00;;;;;;5030286;28;19909;-73
2023/12/07 01:44:03;;;;;;;;;;;0.80;1.00;;;;;;5017384;28;19909;-73
2023/12/07 01:46:29;;;;;;;;;;;0.80;1.00;;;;;;5018206;28;19910;-73
2023/12/07 01:48:55;;;;;;;;;;;0.70;1.00;;;;;;5017343;28;19924;-73
2023/12/07 01:51:21;;;;;;;;;;;0.70;1.00;;;;;;5017442;28;20242;-73
2023/12/07 01:56:51;;;;;;;;;;;0.50;1.00;;;;;;5017007;28;19921;-77
2023/12/07 01:59:24;;;;;;;;;;;0.50;1.00;;;;;;5017207;28;19952;-77
2023/12/07 02:01:50;;;;;;;;;;;0.50;1.00;;;;;;5017539;28;19959;-76
2023/12/07 02:04:36;;;;;;;;;;;0.50;1.00;;;;;;5019996;28;19913;-76
2023/12/07 02:07:06;;;;;;;;;;;0.30;1.00;;;;;;5016276;28;19914;-77
2023/12/07 02:09:32;;;;;;;;;;;0.30;1.00;;;;;;5019130;28;19972;-73
2023/12/07 02:11:58;;;;;;;;;;;;;;;;;;5016249;28;19945;-73
2023/12/07 02:14:23;;;;;;;;;;;0.40;1.00;;;;;;5017068;28;19939;-73
2023/12/07 02:16:54;;;;;;;;;;;0.30;1.00;;;;;;5017007;28;19914;-73
2023/12/07 02:19:23;;;;;;;;;;;0.30;1.00;;;;;;5016681;28;19913;-73
2023/12/07 02:21:52;;;;;;;;;;;0.20;1.00;;;;;;5016674;28;19936;-73
2023/12/07 02:24:24;;;;;;;;;;;;;;;;;;4995298;28;20273;-73
2023/12/07 02:26:50;;;;;;;;;;;0.20;1.00;;;;;;5014878;28;19913;-73
2023/12/07 02:29:16;;;;;;;;;;;;;;;;;;5016310;28;19928;-73
2023/12/07 02:31:42;;;;;;;;;;;;;;;;;;5016792;28;20270;-73
2023/12/07 02:34:07;;;;;;;;;;;0.20;1.00;;;;;;5029725;28;19967;-73
2023/12/07 02:36:33;;;;;;;;;;;;;;;;;;5017866;28;19949;-73
2023/12/07 02:39:01;;;;;;;;;;;0.20;1.00;;;;;;5019958;28;19913;-73
2023/12/07 02:41:27;;;;;;;;;;;0.10;1.00;;;;;;5020238;28;19932;-73
2023/12/07 02:43:54;;;;;;;;;;;0.10;1.00;;;;;;5024191;28;19921;-73
2023/12/07 02:46:25;;;;;;;;;;;0.00;1.00;;;;;;5019469;28;19914;-73
2023/12/07 02:48:54;;;;;;;;;;;;;;;;;;5015889;28;19917;-73
2023/12/07 02:51:19;;;;;;;;;;;-0.10;1.00;;;;;;5016320;28;19917;-73
2023/12/07 02:54:18;;;;;;;;;;;-0.10;1.00;;;;;;5016671;28;19910;-77
2023/12/07 02:57:00;;;;;;;;;;;-0.10;1.00;;;;;;5019052;28;20024;-77
2023/12/07 02:59:42;;;;;;;;;;;-0.10;1.00;;;;;;5019476;28;19964;-77
2023/12/07 03:05:06;;;;;;;;;;;-0.20;1.00;;;;;;5025741;28;19964;-77
2023/12/07 03:07:48;;;;;;;;;;;-0.30;1.00;;;;;;5023673;28;20424;-77
2023/12/07 03:10:14;;;;;;;;;;;-0.30;1.00;;;;;;5016467;28;19928;-73
2023/12/07 03:12:39;;;;;;;;;;;-0.30;1.00;;;;;;5018030;28;19910;-73
2023/12/07 03:15:05;;;;;;;;;;;-0.30;1.00;;;;;;5015775;28;19920;-73
2023/12/07 03:17:31;;;;;;;;;;;-0.30;1.00;;;;;;5015962;28;19917;-73
2023/12/07 03:19:56;;;;;;;;;;;-0.20;1.00;;;;;;5015383;28;19920;-73
2023/12/07 03:22:22;;;;;;;;;;;;;;;;;;5014876;28;19909;-73
2023/12/07 03:27:32;;;;;;;;;;;-0.30;1.00;;;;;;5005795;28;19921;-77
2023/12/07 03:33:12;;;;;;;;;;;-0.40;1.00;;;;;;5015578;28;19956;-77
2023/12/07 03:38:54;;;;;;;;;;;-0.40;1.00;;;;;;5016277;28;19917;-76
2023/12/07 03:41:42;;;;;;;;;;;-0.40;1.00;;;;;;5015221;28;19917;-76
2023/12/07 03:47:10;;;;;;;;;;;-0.40;1.00;;;;;;5006236;28;19920;-77
2023/12/07 03:52:21;;;;;;;;;;;;;;;;;;5015339;28;19980;-76
2023/12/07 03:54:46;;;;;;;;;;;-0.50;1.00;;;;;;5015281;28;20345;-72
2023/12/07 03:57:12;;;;;;;;;;;-0.50;1.00;;;;;;5029538;28;19909;-73
2023/12/07 03:59:37;;;;;;;;;;;-0.50;1.00;;;;;;5019994;28;20001;-73
2023/12/07 04:02:03;;;;;;;;;;;;;;;;;;5021337;28;19920;-73
2023/12/07 04:04:30;;;;;;;;;;;-0.30;1.00;;;;;;5033125;28;19932;-73
2023/12/07 04:06:56;;;;;;;;;;;;;;;;;;5021362;28;19909;-73
2023/12/07 04:09:24;;;;;;;;;;;-0.30;1.00;;;;;;5017192;28;19944;-76
2023/12/07 04:11:50;;;;;;;;;;;-0.30;1.00;;;;;;5014833;28;19909;-77
2023/12/07 04:14:18;;;;;;;;;;;;;;;;;;5014141;28;20272;-77
2023/12/07 04:16:48;;;;;;;;;;;-0.20;1.00;;;;;;5014330;28;19913;-76
2023/12/07 04:19:42;;;;;;;;;;;-0.30;1.00;;;;;;5013031;28;19951;-76
2023/12/07 04:28:13;;;;;;;;;;;-0.20;1.00;;;;;;5014407;28;20387;-76
2023/12/07 04:33:42;;;;;;;;;;;-0.20;1.00;;;;;;5022869;28;19935;-77
2023/12/07 04:38:52;;;;;;;;;;;-0.20;1.00;;;;;;5014919;28;19963;-73
2023/12/07 04:41:18;;;;;;;;;;;;;;;;;;5024883;28;19913;-73
2023/12/07 04:43:48;;;;;;;;;;;-0.10;1.00;;;;;;5018719;28;19913;-73
2023/12/07 04:46:13;;;;;;;;;;;-0.10;1.00;;;;;;5014423;28;19922;-73
2023/12/07 04:48:42;;;;;;;;;;;-0.10;1.00;;;;;;5013200;28;19971;-73
2023/12/07 04:51:08;;;;;;;;;;;-0.10;1.00;;;;;;5014014;28;19918;-73
2023/12/07 04:53:42;;;;;;;;;;;;;;;;;;5014292;28;19913;-73
2023/12/07 04:56:18;;;;;;;;;;;;;;;;;;5014683;28;20009;-73
2023/12/07 04:58:43;;;;;;;;;;;0.00;1.00;;;;;;5014341;28;19914;-73
2023/12/07 05:01:09;;;;;;;;;;;0.00;1.00;;;;;;5014135;28;19964;-73
2023/12/07 05:03:36;;;;;;;;;;;0.10;1.00;;;;;;5012925;28;19920;-73
2023/12/07 05:06:02;;;;;;;;;;;0.00;1.00;;;;;;5009701;28;20280;-73
2023/12/07 05:08:27;;;;;;;;;;;0.00;1.00;;;;;;5029752;28;20004;-73
2023/12/07 05:10:53;;;;;;;;;;;;;;;;;;5031110;28;19917;-73
2023/12/07 05:13:19;;;;;;;;;;;0.10;1.00;;;;;;5019310;28;20000;-73
2023/12/07 05:15:46;;;;;;;;;;;;;;;;;;5018057;28;20011;-73
2023/12/07 05:18:12;;;;;;;;;;;0.20;1.00;;;;;;5021668;28;19913;-73
2023/12/07 05:20:39;;;;;;;;;;;0.30;1.00;;;;;;5029564;28;20072;-73
2023/12/07 05:23:06;;;;;;;;;;;0.30;1.00;;;;;;5030024;28;19956;-73
2023/12/07 05:25:32;;;;;;;;;;;0.30;1.00;;;;;;5000528;28;19910;-74
2023/12/07 05:28:00;;;;;;;;;;;0.30;1.00;;;;;;5017892;28;20264;-73
2023/12/07 05:30:30;;;;;;;;;;;0.40;1.00;;;;;;5015986;28;19917;-73
2023/12/07 05:32:56;;;;;;;;;;;0.40;1.00;;;;;;5016632;28;19975;-72
2023/12/07 05:35:21;;;;;;;;;;;0.30;1.00;;;;;;5018711;28;19972;-72
2023/12/07 05:37:47;;;;;;;;;;;0.20;1.00;;;;;;5018672;28;20276;-72
2023/12/07 05:40:18;;;;;;;;;;;0.30;1.00;;;;;;5017753;28;19914;-75
2023/12/07 05:42:51;;;;;;;;;;;0.30;1.00;;;;;;5017894;28;19963;-77
2023/12/07 05:51:54;;;;;;;;;;;0.20;1.00;;;;;;5017894;28;20392;-87
2023/12/07 05:54:48;;;;;;;;;;;0.20;1.00;;;;;;5000330;28;19951;-86
2023/12/07 06:00:17;;;;;;;;;;;0.10;1.00;;;;;;4998236;28;19921;-85
2023/12/07 06:02:54;;;;;;;;;;;0.00;1.00;;;;;;4993025;28;19949;-72
2023/12/07 06:08:22;;;;;;;;;;;-0.10;1.00;;;;;;5016340;28;19983;-79
2023/12/07 06:11:00;;;;;;;;;;;-0.20;1.00;;;;;;5017352;28;20350;-78
2023/12/07 06:16:28;;;;;;;;;;;-0.20;1.00;;;;;;5028139;28;19967;-78
2023/12/07 06:18:54;;;;;;;;;;;-0.20;1.00;;;;;;5038845;28;19913;-78
2023/12/07 06:24:54;;;;;;;;;;;-0.30;1.00;;;;;;5016694;28;19932;-78
2023/12/07 06:27:30;;;;;;;;;;;-0.30;1.00;;;;;;5016369;28;19910;-75
2023/12/07 06:29:56;;;;;;;;;;;-0.40;1.00;;;;;;5016662;28;19914;-75
2023/12/07 06:32:24;;;;;;;;;;;-0.40;1.00;;;;;;5016937;28;19910;-74
2023/12/07 06:35:07;;;;;;;;;;;-0.40;1.00;;;;;;5018221;28;19920;-78
2023/12/07 06:37:48;;;;;;;;;;;-0.50;1.00;;;;;;5024097;28;19921;-78
2023/12/07 06:40:43;;;;;;;;;;;-0.40;1.00;;;;;;5016534;28;20012;-79
2023/12/07 06:46:12;;;;;;;;;;;-0.50;1.00;;;;;;5016038;28;20399;-78
2023/12/07 06:48:41;;;;;;;;;;;-0.50;1.00;;;;;;5016099;28;19937;-78
2023/12/07 06:51:07;;;;;;;;;;;;;;;;;;5014975;28;19922;-78
2023/12/07 06:56:36;;;;;;;;;;;-0.60;1.00;;;;;;5028951;28;19916;-73
2023/12/07 06:59:18;;;;;;;;;;;-0.70;1.00;;;;;;5016303;28;19914;-73
2023/12/07 07:01:48;;;;;;;;;;;-0.70;1.00;;;;;;5008546;28;19918;-73
2023/12/07 07:04:18;;;;;;;;;;;-0.70;1.00;;;;;;5015657;28;19917;-73
2023/12/07 07:06:44;;;;;;;;;;;;;;;;;;5015183;28;19917;-73
2023/12/07 07:09:10;;;;;;;;;;;-0.70;1.00;;;;;;5015994;28;20001;-73
2023/12/07 07:11:36;;;;;;;;;;;-0.70;1.00;;;;;;5016272;28;20362;-73
2023/12/07 07:14:12;;;;;;;;;;;-0.70;1.00;;;;;;5009866;28;20273;-73
2023/12/07 07:16:42;;;;;;;;;;;;;;;;;;5008796;28;19918;-73
2023/12/07 07:19:08;;;;;;;;;;;-0.60;1.00;;;;;;5015792;28;19989;-73
2023/12/07 07:21:34;;;;;;;;;;;;;;;;;;5016629;28;19937;-73
2023/12/07 07:24:06;;;;;;;;;;;-0.50;1.00;;;;;;5015487;28;20353;-73
2023/12/07 07:29:34;;;;;;;;;;;-0.40;1.70;;;;;;5015079;28;19920;-77
2023/12/07 07:32:00;;;;;;;;;;;-0.30;1.40;;;;;;5014005;28;19913;-77
2023/12/07 07:37:28;;;;;;;;;;;-0.20;2.60;;;;;;5014802;28;19941;-77
2023/12/07 07:39:54;;;;;;;;;;;-0.20;2.00;;;;;;5015548;28;19910;-77
2023/12/07 07:42:30;;;;;;;;;;;-0.10;2.80;;;;;;5032107;28;19921;-73
2023/12/07 07:44:56;;;;;;;;;;;0.00;3.60;;;;;;5006228;28;19960;-73
2023/12/07 07:47:21;;;;;;;;;;;0.10;3.60;;;;;;5028319;28;20000;-73
2023/12/07 07:49:49;;;;;;;;;;;0.30;3.70;;;;;;5016653;28;19953;-73
2023/12/07 07:52:14;;;;;;;;;;;0.30;2.80;;;;;;5015851;28;19916;-73
2023/12/07 07:54:40;;;;;;;;;;;0.40;4.50;;;;;;5015340;28;20265;-73
2023/12/07 07:57:06;;;;;;;;;;;0.60;4.70;;;;;;5015671;28;19917;-78
2023/12/07 07:59:42;;;;;;;;;;;0.70;5.30;;;;;;5015609;28;19910;-78
2023/12/07 08:02:08;;;;;;;;;;;0.80;4.80;;;;;;5014549;28;20056;-78
2023/12/07 08:07:36;;;;;;;;;;;1.00;3.20;;;;;;5014107;28;19960;-77
2023/12/07 08:10:36;;;;;;;;;;;1.20;1.90;;;;;;5014919;28;19921;-78
2023/12/07 08:13:30;;;;;;;;;;;1.20;1.40;;;;;;5014546;28;20000;-78
2023/12/07 08:16:09;;;;;;;;;;;1.30;1.10;;;;;;5015047;28;19986;-78
2023/12/07 08:21:37;;;;;;;;;;;1.50;1.00;;;;;;5014039;28;20052;-78
2023/12/07 08:24:06;;;;;;;;;;;1.50;1.00;;;;;;5014176;28;19960;-78
2023/12/07 08:29:36;;;;;;;;;;;;;;;;;;5013662;28;20411;-78
2023/12/07 08:32:02;;;;;;;;;;;1.60;1.00;;;;;;5014808;28;20000;-78
2023/12/07 08:34:28;;;;;;;;;;;1.50;1.00;;;;;;5014369;28;20028;-78
2023/12/07 08:36:54;;;;;;;;;;;;;;;;;;5014150;28;19917;-78
2023/12/07 08:39:19;;;;;;;;;;;1.60;1.00;;;;;;5013913;28;20004;-79
2023/12/07 08:41:48;;;;;;;;;;;1.70;1.00;;;;;;5013397;28;20368;-73
2023/12/07 08:44:18;;;;;;;;;;;1.60;1.00;;;;;;5016387;28;19918;-73
2023/12/07 08:47:00;;;;;;;;;;;1.60;1.00;;;;;;5024553;28;19914;-73
2023/12/07 08:49:30;;;;;;;;;;;1.60;1.00;;;;;;5018869;28;19975;-73
2023/12/07 08:51:56;;;;;;;;;;;;;;;;;;5013372;28;19918;-73
2023/12/07 08:54:22;;;;;;;;;;;1.70;1.00;;;;;;5019567;28;19915;-73
2023/12/07 08:57:07;;;;;;;;;;;1.70;1.00;;;;;;5022518;28;19909;-78
2023/12/07 09:02:35;;;;;;;;;;;1.80;1.00;;;;;;5014188;28;19917;-78
2023/12/07 09:05:01;;;;;;;;;;;;;;;;;;5005800;28;19913;-79
2023/12/07 09:13:15;;;;;;;;;;;2.60;1.00;;;;;;5020084;28;19924;-73
2023/12/07 09:15:42;;;;;;;;;;;2.80;1.00;;;;;;5006817;28;19918;-73
2023/12/07 09:18:08;;;;;;;;;;;3.00;1.00;;;;;;5025971;28;19909;-74
2023/12/07 09:20:37;;;;;;;;;;;3.10;1.00;;;;;;5014084;28;19965;-73
2023/12/07 09:23:03;;;;;;;;;;;3.20;1.00;;;;;;5018634;28;19917;-74
2023/12/07 09:25:30;;;;;;;;;;;3.20;1.00;;;;;;5013272;28;19917;-73
2023/12/07 09:27:56;;;;;;;;;;;3.10;1.00;;;;;;5013619;28;19913;-73
2023/12/07 09:30:22;;;;;;;;;;;3.10;1.00;;;;;;5019143;28;19921;-74
2023/12/07 09:33:02;;;;;;;;;;;3.00;1.00;;;;;;5019320;28;19910;-74
2023/12/07 09:35:30;;;;;;;;;;;3.00;1.00;;;;;;5014027;28;19959;-73
2023/12/07 09:37:56;;;;;;;;;;;3.10;1.00;;;;;;5013984;28;20499;-73
2023/12/07 09:40:30;;;;;;;;;;;;;;;;;;5013094;28;19909;-74
2023/12/07 09:46:18;;;;;;;;;;;3.10;1.00;;;;;;5014000;28;19916;-79
2023/12/07 09:48:54;;;;;;;;;;;3.10;1.00;;;;;;5013797;28;20324;-78
2023/12/07 09:54:23;;;;;;;;;;;3.10;1.00;;;;;;5018448;28;20448;-78
2023/12/07 09:56:54;;;;;;;;;;;3.20;1.00;;;;;;5017107;28;19910;-74
2023/12/07 09:59:20;;;;;;;;;;;3.20;1.00;;;;;;5021941;28;19925;-73
2023/12/07 10:01:46;;;;;;;;;;;3.30;1.00;;;;;;5020576;28;19909;-74
2023/12/07 10:04:29;;;;;;;;;;;3.40;1.00;;;;;;5018526;28;19914;-73
2023/12/07 10:06:56;;;;;;;;;;;3.70;1.00;;;;;;5015991;28;19913;-74
2023/12/07 10:09:25;;;;;;;;;;;3.90;1.00;;;;;;5016248;28;19914;-74
2023/12/07 10:12:01;;;;;;;;;;;4.00;1.00;;;;;;5024839;28;19913;-74
2023/12/07 10:14:27;;;;;;;;;;;4.10;1.00;;;;;;5024668;28;19909;-74
2023/12/07 10:16:56;;;;;;;;;;;4.40;1.00;;;;;;5017065;28;19917;-74
2023/12/07 10:19:22;;;;;;;;;;;4.50;1.00;;;;;;5016176;28;20656;-74
2023/12/07 10:21:50;;;;;;;;;;;4.60;1.00;;;;;;5024414;28;19924;-74
2023/12/07 10:24:16;;;;;;;;;;;4.80;1.00;;;;;;5024096;28;19968;-74
2023/12/07 10:26:45;;;;;;;;;;;4.90;1.00;;;;;;5016898;28;19917;-74
2023/12/07 10:29:12;;;;;;;;;;;5.10;1.00;;;;;;5024403;28;19924;-74
2023/12/07 10:31:38;;;;;;;;;;;5.20;1.00;;;;;;4998615;28;20275;-74
2023/12/07 10:34:04;;;;;;;;;;;5.30;1.00;;;;;;5022489;28;19917;-74
2023/12/07 10:36:30;;;;;;;;;;;5.50;1.00;;;;;;5030575;28;19962;-74
2023/12/07 10:38:56;;;;;;;;;;;5.50;1.00;;;;;;5028711;28;19910;-74
2023/12/07 10:41:23;;;;;;;;;;;5.70;1.00;;;;;;5025400;28;20370;-74
2023/12/07 10:46:52;;;;;;;;;;;5.80;1.00;;;;;;5016556;28;19960;-78
2023/12/07 10:55:32;;;;;;;;;;;6.00;1.00;;;;;;5016291;28;19921;-78
2023/12/07 10:57:59;;;;;;;;;;;5.80;1.00;;;;;;5017514;28;20352;-74
2023/12/07 11:00:27;;;;;;;;;;;5.80;1.00;;;;;;5022720;28;19913;-74
2023/12/07 11:02:53;;;;;;;;;;;5.90;1.00;;;;;;5023577;28;19913;-74
2023/12/07 11:05:19;;;;;;;;;;;6.00;1.00;;;;;;5015704;28;19910;-74
2023/12/07 11:07:48;;;;;;;;;;;5.80;1.00;;;;;;5016218;28;19914;-74
2023/12/07 11:10:20;;;;;;;;;;;5.80;1.00;;;;;;5016611;28;20265;-74
2023/12/07 11:13:00;;;;;;;;;;;5.70;1.00;;;;;;4999749;28;19918;-74
2023/12/07 11:15:26;;;;;;;;;;;5.70;1.00;;;;;;5015803;28;19914;-74
2023/12/07 11:17:55;;;;;;;;;;;5.60;1.00;;;;;;5023930;28;19931;-74
2023/12/07 11:20:21;;;;;;;;;;;5.60;1.00;;;;;;5021008;28;19909;-74
2023/12/07 11:22:48;;;;;;;;;;;5.60;1.00;;;;;;5027872;28;20058;-74
2023/12/07 11:25:20;;;;;;;;;;;5.60;1.00;;;;;;5014282;28;20344;-74
2023/12/07 11:27:47;;;;;;;;;;;5.60;1.00;;;;;;5015883;28;19910;-74
2023/12/07 11:30:13;;;;;;;;;;;5.60;1.00;;;;;;5030349;28;19945;-74
2023/12/07 11:33:12;;;;;;;;;;;5.70;1.00;;;;;;5028841;28;19909;-76
2023/12/07 11:35:38;;;;;;;;;;;;;;;;;;5022202;28;19927;-75
2023/12/07 11:38:09;;;;;;;;;;;5.70;1.00;;;;;;5018290;28;19953;-74
2023/12/07 11:40:42;;;;;;;;;;;5.50;1.00;;;;;;5015154;28;19963;-74
2023/12/07 11:43:16;;;;;;;;;;;5.40;1.00;;;;;;5021490;28;20423;-74
2023/12/07 11:45:49;;;;;;;;;;;5.00;1.00;;;;;;5015424;28;20294;-74
2023/12/07 11:48:15;;;;;;;;;;;5.10;1.00;;;;;;5010180;28;19949;-75
2023/12/07 11:50:56;;;;;;;;;;;5.20;1.00;;;;;;5006596;28;20369;-74
2023/12/07 11:53:25;;;;;;;;;;;5.20;1.00;;;;;;5014909;28;19960;-75
2023/12/07 11:56:01;;;;;;;;;;;5.20;1.00;;;;;;5015257;28;19941;-74
2023/12/07 11:58:42;;;;;;;;;;;5.10;1.00;;;;;;5016306;28;19917;-75
2023/12/07 12:01:12;;;;;;;;;;;5.10;1.00;;;;;;5014422;28;20000;-74
2023/12/07 12:03:42;;;;;;;;;;;5.30;1.00;;;;;;5015061;28;19917;-74
2023/12/07 12:06:12;;;;;;;;;;;5.30;1.00;;;;;;5014584;28;19916;-74
2023/12/07 12:08:42;;;;;;;;;;;5.30;1.00;;;;;;5014527;28;19913;-74
2023/12/07 12:11:08;;;;;;;;;;;5.40;1.00;;;;;;5014608;28;19913;-73
2023/12/07 12:13:49;;;;;;;;;;;5.50;1.00;;;;;;5014571;28;19917;-78
2023/12/07 12:22:21;;;;;;;;;;;5.70;1.00;;;;;;5011051;28;20614;-77
2023/12/07 12:24:48;;;;;;;;;;;5.80;1.00;;;;;;5012891;28;19913;-77
2023/12/07 12:30:18;;;;;;;;;;;5.80;1.00;;;;;;5007662;28;19960;-75
2023/12/07 12:33:00;;;;;;;;;;;5.80;1.00;;;;;;5014300;28;19925;-73
2023/12/07 12:35:30;;;;;;;;;;;5.70;1.00;;;;;;5013368;28;19921;-74
2023/12/07 12:37:56;;;;;;;;;;;5.60;1.00;;;;;;5014265;28;19931;-74
2023/12/07 12:40:31;;;;;;;;;;;5.50;1.00;;;;;;5013482;28;20365;-73
2023/12/07 12:43:00;;;;;;;;;;;5.50;1.00;;;;;;5013873;28;19976;-75
2023/12/07 12:45:36;;;;;;;;;;;5.50;1.00;;;;;;5014403;28;19918;-75
2023/12/07 12:48:02;;;;;;;;;;;5.40;1.00;;;;;;5013375;28;19961;-76
2023/12/07 12:50:37;;;;;;;;;;;5.20;1.00;;;;;;5013839;28;19961;-76
2023/12/07 12:53:10;;;;;;;;;;;5.10;1.00;;;;;;5013500;28;20305;-76
2023/12/07 12:55:36;;;;;;;;;;;5.20;1.00;;;;;;5013328;28;19914;-76
2023/12/07 12:58:10;;;;;;;;;;;5.00;1.00;;;;;;5013247;28;20365;-76
2023/12/07 13:00:39;;;;;;;;;;;4.90;1.00;;;;;;5013421;28;20365;-79
2023/12/07 13:09:11;;;;;;;;;;;5.00;1.00;;;;;;5012177;28;19983;-80
2023/12/07 13:15:06;;;;;;;;;;;5.10;1.00;;;;;;5019450;28;19956;-76
2023/12/07 13:20:35;;;;;;;;;;;5.00;1.00;;;;;;5014184;28;19916;-76
2023/12/07 13:23:06;;;;;;;;;;;4.60;1.00;;;;;;5013133;28;19914;-75
2023/12/07 13:28:35;;;;;;;;;;;4.60;1.00;;;;;;5021979;28;20017;-76
2023/12/07 13:31:06;;;;;;;;;;;4.80;1.00;;;;;;5016118;28;20020;-76
2023/12/07 13:33:55;;;;;;;;;;;4.70;1.00;;;;;;5023701;28;20773;-76
2023/12/07 13:36:27;;;;;;;;;;;4.80;1.00;;;;;;5008132;28;20380;-75
2023/12/07 13:39:20;;;;;;;;;;;4.60;1.00;;;;;;5017787;28;19944;-79
2023/12/07 13:41:49;;;;;;;;;;;;;;;;;;5015495;28;19996;-72
2023/12/07 13:44:17;;;;;;;;;;;4.80;1.00;;;;;;5017822;28;20382;-77
2023/12/07 13:47:14;;;;;;;;;;;4.90;1.00;;;;;;5017436;28;19917;-78
2023/12/07 13:49:40;;;;;;;;;;;4.80;1.00;;;;;;5014341;28;19925;-77
2023/12/07 13:52:06;;;;;;;;;;;;;;;;;;5016080;28;19937;-78
2023/12/07 13:54:48;;;;;;;;;;;4.80;1.00;;;;;;5017621;28;20008;-78
2023/12/07 13:57:24;;;;;;;;;;;;;;;;;;5021337;28;20368;-77
2023/12/07 14:05:56;;;;;;;;;;;4.50;1.00;;;;;;5017179;28;19948;-77
2023/12/07 14:08:36;;;;;;;;;;;4.50;1.00;;;;;;5022381;28;19941;-76
2023/12/07 14:11:06;;;;;;;;;;;4.50;1.00;;;;;;5016680;28;19965;-76
2023/12/07 14:13:54;;;;;;;;;;;4.50;1.00;;;;;;5017197;28;19960;-77
2023/12/07 14:16:20;;;;;;;;;;;4.50;1.00;;;;;;5020315;28;19914;-72
2023/12/07 14:18:46;;;;;;;;;;;4.50;1.00;;;;;;5018828;28;19913;-72
2023/12/07 14:21:12;;;;;;;;;;;4.60;1.00;;;;;;5016543;28;19919;-72
2023/12/07 14:23:42;;;;;;;;;;;4.60;1.00;;;;;;5016529;28;19909;-72
2023/12/07 14:26:08;;;;;;;;;;;4.60;1.00;;;;;;5016579;28;19960;-72
2023/12/07 14:28:35;;;;;;;;;;;;;;;;;;5016706;28;19953;-72
2023/12/07 14:31:00;;;;;;;;;;;4.60;1.00;;;;;;5019291;28;20004;-72
2023/12/07 14:33:26;;;;;;;;;;;4.50;1.00;;;;;;5020042;28;19996;-72
2023/12/07 14:35:51;;;;;;;;;;;4.70;1.00;;;;;;5015960;28;19914;-72
2023/12/07 14:38:17;;;;;;;;;;;4.70;1.00;;;;;;5016143;28;19913;-72
2023/12/07 14:40:43;;;;;;;;;;;4.70;1.00;;;;;;5015643;28;19910;-72
2023/12/07 14:43:09;;;;;;;;;;;4.70;1.00;;;;;;5016114;28;19916;-72
2023/12/07 14:45:34;;;;;;;;;;;4.70;1.00;;;;;;5018721;28;19963;-72
2023/12/07 14:48:00;;;;;;;;;;;4.70;1.00;;;;;;5022457;28;19917;-71
2023/12/07 14:50:25;;;;;;;;;;;4.70;1.00;;;;;;5020094;28;20288;-71
2023/12/07 14:52:51;;;;;;;;;;;4.70;1.00;;;;;;5021495;28;19963;-71
2023/12/07 14:55:18;;;;;;;;;;;4.70;1.00;;;;;;5021370;28;19932;-72
2023/12/07 14:57:44;;;;;;;;;;;4.60;1.00;;;;;;5013155;28;20312;-72
2023/12/07 15:00:18;;;;;;;;;;;4.60;1.00;;;;;;5016488;28;19996;-76
2023/12/07 15:05:47;;;;;;;;;;;4.70;1.00;;;;;;5015810;28;20284;-76
2023/12/07 15:08:13;;;;;;;;;;;4.70;1.00;;;;;;5015605;28;20016;-76
2023/12/07 15:10:52;;;;;;;;;;;4.70;1.00;;;;;;5034931;28;19967;-76
2023/12/07 15:16:20;;;;;;;;;;;4.60;1.00;;;;;;5009098;28;20393;-72
2023/12/07 15:18:46;;;;;;;;;;;4.50;1.00;;;;;;5022897;28;20016;-72
2023/12/07 15:21:15;;;;;;;;;;;4.50;1.00;;;;;;5014729;28;19913;-72
2023/12/07 15:23:41;;;;;;;;;;;4.50;1.00;;;;;;5018323;28;19955;-71
2023/12/07 15:26:08;;;;;;;;;;;4.50;1.00;;;;;;5022488;28;20372;-72
2023/12/07 15:28:37;;;;;;;;;;;4.40;1.00;;;;;;5015793;28;19917;-72
2023/12/07 15:31:06;;;;;;;;;;;4.40;1.00;;;;;;5015179;28;20327;-72
2023/12/07 15:33:32;;;;;;;;;;;4.40;1.00;;;;;;5013487;28;19913;-72
2023/12/07 15:36:06;;;;;;;;;;;;;;;;;;5016744;28;19914;-73
2023/12/07 15:38:32;;;;;;;;;;;4.10;1.00;;;;;;5006235;28;19922;-71
2023/12/07 15:41:02;;;;;;;;;;;4.10;1.00;;;;;;5011291;28;19993;-71
2023/12/07 15:43:28;;;;;;;;;;;3.90;1.00;;;;;;5024160;28;19920;-72
2023/12/07 15:45:54;;;;;;;;;;;3.80;1.00;;;;;;5015847;28;19921;-75
2023/12/07 15:48:19;;;;;;;;;;;3.70;1.00;;;;;;5015407;28;19918;-75
2023/12/07 15:50:46;;;;;;;;;;;3.60;1.00;;;;;;5020830;28;19921;-75
2023/12/07 15:53:12;;;;;;;;;;;3.60;1.00;;;;;;5004770;28;19910;-75
2023/12/07 15:55:38;;;;;;;;;;;3.60;1.00;;;;;;5013859;28;20000;-76
2023/12/07 15:58:07;;;;;;;;;;;3.50;1.00;;;;;;5015325;28;20004;-75
2023/12/07 16:00:33;;;;;;;;;;;3.50;1.00;;;;;;5015715;28;19913;-75
2023/12/07 16:03:18;;;;;;;;;;;3.40;1.00;;;;;;5014758;28;19967;-75
2023/12/07 16:06:01;;;;;;;;;;;3.40;1.00;;;;;;5012614;28;19964;-78
2023/12/07 16:11:29;;;;;;;;;;;3.30;1.00;;;;;;5014705;28;19947;-78
2023/12/07 16:14:06;;;;;;;;;;;3.30;1.00;;;;;;5014793;28;20480;-80
2023/12/07 16:16:32;;;;;;;;;;;3.30;1.00;;;;;;5023289;28;19930;-71
2023/12/07 16:18:58;;;;;;;;;;;3.30;1.00;;;;;;5016162;28;19909;-71
2023/12/07 16:27:30;;;;;;;;;;;3.20;1.00;;;;;;5007580;28;20011;-77
2023/12/07 16:30:14;;;;;;;;;;;3.10;1.00;;;;;;5014216;28;19973;-78
2023/12/07 16:33:06;;;;;;;;;;;3.10;1.00;;;;;;5035572;28;19913;-77
2023/12/07 16:38:48;;;;;;;;;;;;;;;;;;5009287;28;19925;-78
2023/12/07 16:41:36;;;;;;;;;;;2.90;1.00;;;;;;5008632;28;20102;-76
2023/12/07 16:44:06;;;;;;;;;;;2.80;1.00;;;;;;5013464;28;19918;-80
2023/12/07 16:52:48;;;;;;;;;;;2.40;1.00;;;;;;5013036;28;19929;-79
2023/12/07 16:55:44;;;;;;;;;;;2.30;1.00;;;;;;5014138;28;19913;-79
2023/12/07 17:01:18;;;;;;;;;;;;;;;;;;4995753;28;19964;-73
2023/12/07 17:03:46;;;;;;;;;;;;;;;;;;5015561;28;19910;-73
2023/12/07 17:06:12;;;;;;;;;;;;;;;;;;5016856;28;19980;-73
2023/12/07 17:08:52;;;;;;;;;;;2.10;1.00;;;;;;5016731;28;19956;-73
2023/12/07 17:11:17;;;;;;;;;;;2.10;1.00;;;;;;5028062;28;19963;-73
2023/12/07 17:13:45;;;;;;;;;;;2.00;1.00;;;;;;5019727;28;20007;-73
2023/12/07 17:19:13;;;;;;;;;;;2.00;1.00;;;;;;5019516;28;19957;-80
2023/12/07 17:21:38;;;;;;;;;;;1.90;1.00;;;;;;5020329;28;20321;-80
2023/12/07 17:24:07;;;;;;;;;;;1.90;1.00;;;;;;5009484;28;19941;-80
2023/12/07 17:30:00;;;;;;;;;;;1.70;1.00;;;;;;5032145;28;19921;-79
2023/12/07 17:32:26;;;;;;;;;;;1.70;1.00;;;;;;5017068;28;19968;-72
2023/12/07 17:34:52;;;;;;;;;;;;;;;;;;5020165;28;19913;-72
2023/12/07 17:37:19;;;;;;;;;;;1.70;1.00;;;;;;5002218;28;20000;-70
2023/12/07 17:39:48;;;;;;;;;;;1.60;1.00;;;;;;5015838;28;20289;-72
2023/12/07 17:42:24;;;;;;;;;;;;;;;;;;5020825;28;19920;-72
2023/12/07 17:44:50;;;;;;;;;;;1.60;1.00;;;;;;5039929;28;19913;-72
2023/12/07 17:47:15;;;;;;;;;;;1.60;1.00;;;;;;5027185;28;20008;-76
2023/12/07 17:52:54;;;;;;;;;;;1.50;1.00;;;;;;5022990;28;19936;-76
2023/12/07 17:55:20;;;;;;;;;;;;;;;;;;5019541;28;19909;-76
2023/12/07 18:03:35;;;;;;;;;;;;;;;;;;5018780;28;19920;-71
2023/12/07 18:06:06;;;;;;;;;;;1.50;1.00;;;;;;5019976;28;19983;-72
2023/12/07 18:08:32;;;;;;;;;;;;;;;;;;5019085;28;20357;-72